createdAt,value
2019-02-06T00:00:26.915Z,0.00
2019-02-06T00:01:25.518Z,0.00
2019-02-06T00:02:25.551Z,0.00
2019-02-06T00:03:25.544Z,0.00
2019-02-06T00:04:25.550Z,0.00
2019-02-06T00:05:25.562Z,0.00
2019-02-06T00:06:25.572Z,0.00
2019-02-06T00:07:25.582Z,0.00
2019-02-06T00:08:25.594Z,0.00
2019-02-06T00:09:25.605Z,0.00
2019-02-06T00:10:25.620Z,0.00
2019-02-06T00:11:25.628Z,0.00
2019-02-06T00:12:25.648Z,0.00
2019-02-06T00:13:25.675Z,0.00
2019-02-06T00:14:25.746Z,0.00
2019-02-06T00:15:25.702Z,0.00
2019-02-06T00:16:25.689Z,0.00
2019-02-06T00:17:25.718Z,0.00
2019-02-06T00:18:25.735Z,0.00
2019-02-06T00:19:25.830Z,0.00
2019-02-06T00:20:25.768Z,0.00
2019-02-06T00:21:25.746Z,0.00
2019-02-06T00:22:25.946Z,0.00
2019-02-06T00:23:25.764Z,0.00
2019-02-06T00:24:25.777Z,0.00
2019-02-06T00:25:25.785Z,0.00
2019-02-06T00:26:25.799Z,0.00
2019-02-06T00:27:25.817Z,0.00
2019-02-06T00:28:25.817Z,0.00
2019-02-06T00:29:25.834Z,0.00
2019-02-06T00:30:25.844Z,0.00
2019-02-06T00:31:25.861Z,0.00
2019-02-06T00:32:25.885Z,0.00
2019-02-06T00:33:25.913Z,0.00
2019-02-06T00:34:25.887Z,0.00
2019-02-06T00:35:26.282Z,0.00
2019-02-06T00:36:25.915Z,0.00
2019-02-06T00:37:25.931Z,0.00
2019-02-06T00:38:25.936Z,0.00
2019-02-06T00:39:25.945Z,0.00
2019-02-06T00:40:25.963Z,0.00
2019-02-06T00:41:26.062Z,0.00
2019-02-06T00:42:26.049Z,0.00
2019-02-06T00:43:25.987Z,0.00
2019-02-06T00:44:25.998Z,0.00
2019-02-06T00:45:26.145Z,0.00
2019-02-06T00:46:26.066Z,0.00
2019-02-06T00:47:26.034Z,0.00
2019-02-06T00:48:26.047Z,0.00
2019-02-06T00:49:26.058Z,0.00
2019-02-06T00:50:26.065Z,0.00
2019-02-06T00:51:26.077Z,0.00
2019-02-06T00:52:26.089Z,0.00
2019-02-06T00:53:26.102Z,0.00
2019-02-06T00:54:26.118Z,0.00
2019-02-06T00:55:26.122Z,0.00
2019-02-06T00:56:26.131Z,0.00
2019-02-06T00:57:26.144Z,0.00
2019-02-06T00:58:26.159Z,0.00
2019-02-06T00:59:26.167Z,0.00
2019-02-06T01:00:26.177Z,0.00
2019-02-06T01:01:26.193Z,0.00
2019-02-06T01:02:26.202Z,0.00
2019-02-06T01:03:26.208Z,0.00
2019-02-06T01:04:26.224Z,0.00
2019-02-06T01:05:37.479Z,0.00
2019-02-06T01:06:26.241Z,0.00
2019-02-06T01:07:26.254Z,0.00
2019-02-06T01:08:26.264Z,0.00
2019-02-06T01:09:26.287Z,0.00
2019-02-06T01:10:26.291Z,0.00
2019-02-06T01:11:26.299Z,0.00
2019-02-06T01:12:26.311Z,0.00
2019-02-06T01:13:26.331Z,0.00
2019-02-06T01:14:26.370Z,0.00
2019-02-06T01:15:26.354Z,0.00
2019-02-06T01:16:26.365Z,0.00
2019-02-06T01:17:26.370Z,0.00
2019-02-06T01:18:26.375Z,0.00
2019-02-06T01:19:26.389Z,0.00
2019-02-06T01:20:26.421Z,0.00
2019-02-06T01:21:26.411Z,0.00
2019-02-06T01:22:26.421Z,0.00
2019-02-06T01:23:26.438Z,0.00
2019-02-06T01:24:26.442Z,0.00
2019-02-06T01:25:26.454Z,0.00
2019-02-06T01:26:26.464Z,0.00
2019-02-06T01:27:26.473Z,0.00
2019-02-06T01:28:26.483Z,0.00
2019-02-06T01:29:26.503Z,0.00
2019-02-06T01:30:26.509Z,0.00
2019-02-06T01:31:26.521Z,0.00
2019-02-06T01:32:26.534Z,0.00
2019-02-06T01:33:26.565Z,0.00
2019-02-06T01:34:26.553Z,0.00
2019-02-06T01:35:26.567Z,0.00
2019-02-06T01:36:26.574Z,0.00
2019-02-06T01:37:26.583Z,0.00
2019-02-06T01:38:26.603Z,0.00
2019-02-06T01:39:26.641Z,0.00
2019-02-06T01:40:26.621Z,0.00
2019-02-06T01:41:26.659Z,0.00
2019-02-06T01:42:26.640Z,0.00
2019-02-06T01:43:26.652Z,0.00
2019-02-06T01:44:26.663Z,0.00
2019-02-06T01:45:26.678Z,0.00
2019-02-06T01:46:26.683Z,0.00
2019-02-06T01:47:26.739Z,0.00
2019-02-06T01:48:26.790Z,0.00
2019-02-06T01:49:26.720Z,0.00
2019-02-06T01:50:26.729Z,0.00
2019-02-06T01:51:26.738Z,0.00
2019-02-06T01:52:26.749Z,0.00
2019-02-06T01:53:26.764Z,0.00
2019-02-06T01:54:26.793Z,0.00
2019-02-06T01:55:26.812Z,0.00
2019-02-06T01:56:26.821Z,0.00
2019-02-06T01:57:26.804Z,0.00
2019-02-06T01:58:26.818Z,0.00
2019-02-06T01:59:26.829Z,0.00
2019-02-06T02:00:26.882Z,0.00
2019-02-06T02:01:26.846Z,0.00
2019-02-06T02:02:26.879Z,0.00
2019-02-06T02:03:26.874Z,0.00
2019-02-06T02:04:26.884Z,0.00
2019-02-06T02:05:26.896Z,0.00
2019-02-06T02:06:26.904Z,0.00
2019-02-06T02:07:26.921Z,0.00
2019-02-06T02:08:26.942Z,0.00
2019-02-06T02:09:26.937Z,0.00
2019-02-06T02:10:26.946Z,0.00
2019-02-06T02:11:26.954Z,0.00
2019-02-06T02:12:26.968Z,0.00
2019-02-06T02:13:26.983Z,0.00
2019-02-06T02:14:27.021Z,0.00
2019-02-06T02:15:27.005Z,0.00
2019-02-06T02:16:27.055Z,0.00
2019-02-06T02:17:27.019Z,0.00
2019-02-06T02:18:27.036Z,0.00
2019-02-06T02:19:27.042Z,0.00
2019-02-06T02:20:27.052Z,0.00
2019-02-06T02:21:27.067Z,0.00
2019-02-06T02:22:27.076Z,0.00
2019-02-06T02:23:27.084Z,0.00
2019-02-06T02:24:27.095Z,0.00
2019-02-06T02:25:27.117Z,0.00
2019-02-06T02:26:27.118Z,0.00
2019-02-06T02:27:27.134Z,0.00
2019-02-06T02:28:27.142Z,0.00
2019-02-06T02:29:27.152Z,0.00
2019-02-06T02:30:27.162Z,0.00
2019-02-06T02:31:27.175Z,0.00
2019-02-06T02:32:27.184Z,0.00
2019-02-06T02:33:27.210Z,0.00
2019-02-06T02:34:27.206Z,0.00
2019-02-06T02:35:27.222Z,0.00
2019-02-06T02:36:27.300Z,0.00
2019-02-06T02:37:27.313Z,0.00
2019-02-06T02:38:27.343Z,0.00
2019-02-06T02:39:27.257Z,0.00
2019-02-06T02:40:27.282Z,0.00
2019-02-06T02:41:27.282Z,0.00
2019-02-06T02:42:27.293Z,0.00
2019-02-06T02:43:27.356Z,0.00
2019-02-06T02:44:27.395Z,0.00
2019-02-06T02:45:27.323Z,0.00
2019-02-06T02:46:27.333Z,0.00
2019-02-06T02:47:27.347Z,0.00
2019-02-06T02:48:27.358Z,0.00
2019-02-06T02:49:27.399Z,0.00
2019-02-06T02:50:27.377Z,0.00
2019-02-06T02:51:27.405Z,0.00
2019-02-06T02:52:27.410Z,0.00
2019-02-06T02:53:27.413Z,0.00
2019-02-06T02:54:27.420Z,0.00
2019-02-06T02:55:27.436Z,0.00
2019-02-06T02:56:27.445Z,0.00
2019-02-06T02:57:27.465Z,0.00
2019-02-06T02:58:27.471Z,0.00
2019-02-06T02:59:27.474Z,0.00
2019-02-06T03:00:27.484Z,0.00
2019-02-06T03:01:27.503Z,0.00
2019-02-06T03:02:27.512Z,0.00
2019-02-06T03:03:27.526Z,0.00
2019-02-06T03:04:27.555Z,0.00
2019-02-06T03:05:27.567Z,0.00
2019-02-06T03:06:28.694Z,0.00
2019-02-06T03:07:27.569Z,0.00
2019-02-06T03:08:27.576Z,0.00
2019-02-06T03:38:04.085Z,0.00
2019-02-06T03:39:04.058Z,0.00
2019-02-06T03:40:56.502Z,0.00
2019-02-06T03:41:56.481Z,0.00
2019-02-06T03:43:48.374Z,0.00
2019-02-06T03:44:48.377Z,0.00
2019-02-06T03:46:40.313Z,0.00
2019-02-06T03:47:40.286Z,0.00
2019-02-06T03:49:32.185Z,0.00
2019-02-06T03:50:32.184Z,0.00
2019-02-06T03:52:24.133Z,0.00
2019-02-06T03:53:24.228Z,0.00
2019-02-06T03:55:16.050Z,0.00
2019-02-06T03:56:16.052Z,0.00
2019-02-06T03:58:07.968Z,0.00
2019-02-06T03:59:07.954Z,0.00
2019-02-06T04:00:59.857Z,0.00
2019-02-06T04:01:59.857Z,0.00
2019-02-06T04:03:52.272Z,0.00
2019-02-06T04:04:52.258Z,0.00
2019-02-06T04:06:53.387Z,0.00
2019-02-06T04:07:44.185Z,0.00
2019-02-06T04:09:36.101Z,0.00
2019-02-06T04:10:36.099Z,0.00
2019-02-06T04:12:28.028Z,0.00
2019-02-06T04:13:28.014Z,0.00
2019-02-06T04:15:19.911Z,0.00
2019-02-06T04:16:19.916Z,0.00
2019-02-06T04:18:11.840Z,0.00
2019-02-06T04:19:11.841Z,0.00
2019-02-06T04:21:03.728Z,0.00
2019-02-06T04:22:03.773Z,0.00
2019-02-06T04:23:55.703Z,0.00
2019-02-06T04:24:55.650Z,0.00
2019-02-06T04:26:47.572Z,0.00
2019-02-06T04:27:47.557Z,0.00
2019-02-06T04:29:39.477Z,0.00
2019-02-06T04:30:39.479Z,0.00
2019-02-06T04:32:31.909Z,0.00
2019-02-06T04:33:31.939Z,0.00
2019-02-06T04:35:23.804Z,0.00
2019-02-06T04:36:23.835Z,0.00
2019-02-06T04:38:15.821Z,0.00
2019-02-06T04:39:15.735Z,0.00
2019-02-06T04:41:07.666Z,0.00
2019-02-06T04:42:07.661Z,0.00
2019-02-06T04:43:59.606Z,0.00
2019-02-06T04:44:59.590Z,0.00
2019-02-06T04:46:51.566Z,0.00
2019-02-06T04:47:51.517Z,0.00
2019-02-06T04:49:43.441Z,0.00
2019-02-06T04:50:43.447Z,0.00
2019-02-06T04:52:35.396Z,0.00
2019-02-06T04:53:35.384Z,0.00
2019-02-06T04:55:27.310Z,0.00
2019-02-06T04:56:27.309Z,0.00
2019-02-06T04:58:19.225Z,0.00
2019-02-06T04:59:19.209Z,0.00
2019-02-06T05:01:11.121Z,0.00
2019-02-06T05:02:11.126Z,0.00
2019-02-06T05:04:03.055Z,0.00
2019-02-06T05:05:03.060Z,0.00
2019-02-06T05:06:54.944Z,0.00
2019-02-06T05:07:54.947Z,0.00
2019-02-06T05:09:46.875Z,0.00
2019-02-06T05:10:46.862Z,0.00
2019-02-06T05:12:38.792Z,0.00
2019-02-06T05:13:38.780Z,0.00
2019-02-06T05:15:30.682Z,0.00
2019-02-06T05:16:30.691Z,0.00
2019-02-06T05:18:22.626Z,0.00
2019-02-06T05:19:22.624Z,0.00
2019-02-06T05:21:14.500Z,0.00
2019-02-06T05:22:14.510Z,0.00
2019-02-06T05:24:06.456Z,0.00
2019-02-06T05:25:06.431Z,0.00
2019-02-06T05:26:58.364Z,0.00
2019-02-06T05:27:58.346Z,0.00
2019-02-06T05:29:50.279Z,0.00
2019-02-06T05:30:50.259Z,0.00
2019-02-06T05:32:42.897Z,0.00
2019-02-06T05:33:42.178Z,0.00
2019-02-06T05:35:34.149Z,0.00
2019-02-06T05:36:34.083Z,0.00
2019-02-06T05:38:26.024Z,0.00
2019-02-06T05:39:26.000Z,0.00
2019-02-06T05:41:18.430Z,0.00
2019-02-06T05:42:18.433Z,0.00
2019-02-06T05:44:11.876Z,0.00
2019-02-06T05:45:11.858Z,0.00
2019-02-06T05:47:03.761Z,0.00
2019-02-06T05:48:03.763Z,0.00
2019-02-06T05:49:55.711Z,0.00
2019-02-06T05:50:55.701Z,0.00
2019-02-06T05:52:47.617Z,0.00
2019-02-06T05:53:47.608Z,0.00
2019-02-06T05:55:39.591Z,0.00
2019-02-06T05:56:39.524Z,0.00
2019-02-06T05:58:31.452Z,0.00
2019-02-06T05:59:31.429Z,0.00
2019-02-06T06:01:23.527Z,0.00
2019-02-06T06:02:23.543Z,0.00
2019-02-06T06:04:15.494Z,0.00
2019-02-06T06:05:15.482Z,0.00
2019-02-06T06:07:07.407Z,0.00
2019-02-06T06:08:07.460Z,0.00
2019-02-06T06:09:59.361Z,0.00
2019-02-06T06:10:59.339Z,0.00
2019-02-06T06:12:51.243Z,0.00
2019-02-06T06:13:51.248Z,0.00
2019-02-06T06:15:43.290Z,0.00
2019-02-06T06:16:43.202Z,0.00
2019-02-06T06:18:35.130Z,0.00
2019-02-06T06:19:35.107Z,0.00
2019-02-06T06:21:27.105Z,0.00
2019-02-06T06:22:27.061Z,0.00
2019-02-06T06:24:18.985Z,0.00
2019-02-06T06:25:18.990Z,0.00
2019-02-06T06:27:10.869Z,0.00
2019-02-06T06:28:10.876Z,0.00
2019-02-06T06:30:02.820Z,0.00
2019-02-06T06:31:02.832Z,0.00
2019-02-06T06:32:54.743Z,0.00
2019-02-06T06:33:54.740Z,0.00
2019-02-06T06:35:46.719Z,0.00
2019-02-06T06:36:46.685Z,0.00
2019-02-06T06:38:38.668Z,0.00
2019-02-06T06:39:38.584Z,0.00
2019-02-06T06:41:30.551Z,0.00
2019-02-06T06:42:30.525Z,0.00
2019-02-06T06:44:22.445Z,0.00
2019-02-06T06:45:22.480Z,0.00
2019-02-06T06:47:14.353Z,0.00
2019-02-06T06:48:14.363Z,0.00
2019-02-06T06:50:06.292Z,0.00
2019-02-06T06:51:06.281Z,0.00
2019-02-06T06:52:58.207Z,0.00
2019-02-06T06:53:58.205Z,0.00
2019-02-06T06:55:50.138Z,0.00
2019-02-06T06:56:50.127Z,0.00
2019-02-06T06:58:42.033Z,0.00
2019-02-06T06:59:42.040Z,0.00
2019-02-06T07:01:33.964Z,0.00
2019-02-06T07:02:33.948Z,0.00
2019-02-06T07:04:25.854Z,0.00
2019-02-06T07:05:25.856Z,0.00
2019-02-06T07:07:17.789Z,0.00
2019-02-06T07:08:17.810Z,0.00
2019-02-06T07:10:12.194Z,0.00
2019-02-06T07:11:09.705Z,5.63
2019-02-06T07:13:01.640Z,5.63
2019-02-06T07:14:01.638Z,5.63
2019-02-06T07:15:53.584Z,5.63
2019-02-06T07:16:53.566Z,5.63
2019-02-06T07:18:45.521Z,5.63
2019-02-06T07:19:45.511Z,11.25
2019-02-06T07:21:37.461Z,11.25
2019-02-06T07:22:37.446Z,11.25
2019-02-06T07:24:29.357Z,11.25
2019-02-06T07:25:29.358Z,11.25
2019-02-06T07:26:29.370Z,11.25
2019-02-06T07:27:29.384Z,11.25
2019-02-06T07:28:29.390Z,16.88
2019-02-06T07:29:29.400Z,16.88
2019-02-06T07:30:29.411Z,16.88
2019-02-06T07:31:29.424Z,16.88
2019-02-06T07:32:29.444Z,16.88
2019-02-06T07:33:29.444Z,16.88
2019-02-06T07:34:29.471Z,22.50
2019-02-06T07:35:29.469Z,22.50
2019-02-06T07:36:29.482Z,22.50
2019-02-06T07:37:29.496Z,22.50
2019-02-06T07:38:29.507Z,22.50
2019-02-06T07:39:29.514Z,22.50
2019-02-06T07:40:29.523Z,22.50
2019-02-06T07:41:29.533Z,22.50
2019-02-06T07:42:29.547Z,22.50
2019-02-06T07:43:29.553Z,28.13
2019-02-06T07:44:29.567Z,28.13
2019-02-06T07:45:29.581Z,28.13
2019-02-06T07:46:29.587Z,28.13
2019-02-06T07:47:29.599Z,28.13
2019-02-06T07:48:29.721Z,28.13
2019-02-06T07:49:29.617Z,28.13
2019-02-06T07:50:29.629Z,28.13
2019-02-06T07:51:29.644Z,28.13
2019-02-06T07:52:29.658Z,33.75
2019-02-06T07:53:29.664Z,33.75
2019-02-06T07:54:29.676Z,33.75
2019-02-06T07:55:29.691Z,33.75
2019-02-06T07:56:29.698Z,33.75
2019-02-06T07:57:29.709Z,33.75
2019-02-06T07:58:29.729Z,33.75
2019-02-06T07:59:29.733Z,33.75
2019-02-06T08:00:29.743Z,33.75
2019-02-06T08:01:29.755Z,39.38
2019-02-06T08:02:29.767Z,39.38
2019-02-06T08:03:29.782Z,39.38
2019-02-06T08:04:29.791Z,39.38
2019-02-06T08:05:29.822Z,39.38
2019-02-06T08:06:29.812Z,39.38
2019-02-06T08:07:29.822Z,39.38
2019-02-06T08:08:36.237Z,39.38
2019-02-06T08:09:29.844Z,39.38
2019-02-06T08:10:29.856Z,39.38
2019-02-06T08:11:29.865Z,39.38
2019-02-06T08:12:29.878Z,39.38
2019-02-06T08:13:29.904Z,39.38
2019-02-06T08:14:29.901Z,39.38
2019-02-06T08:15:29.910Z,45.00
2019-02-06T08:16:29.929Z,45.00
2019-02-06T08:17:29.935Z,45.00
2019-02-06T08:18:29.968Z,45.00
2019-02-06T08:19:29.964Z,45.00
2019-02-06T08:20:29.964Z,45.00
2019-02-06T08:21:29.983Z,50.63
2019-02-06T08:22:31.204Z,50.63
2019-02-06T08:23:30.000Z,50.63
2019-02-06T08:24:30.087Z,50.63
2019-02-06T08:25:30.023Z,50.63
2019-02-06T08:26:30.054Z,50.63
2019-02-06T08:27:30.076Z,50.63
2019-02-06T08:28:30.055Z,50.63
2019-02-06T08:29:30.125Z,50.63
2019-02-06T08:30:30.079Z,50.63
2019-02-06T08:31:30.087Z,50.63
2019-02-06T08:32:30.110Z,50.63
2019-02-06T08:33:30.165Z,50.63
2019-02-06T08:34:30.121Z,50.63
2019-02-06T08:35:30.134Z,50.63
2019-02-06T08:36:30.155Z,50.63
2019-02-06T08:37:30.163Z,50.63
2019-02-06T08:38:30.175Z,50.63
2019-02-06T08:39:30.183Z,50.63
2019-02-06T08:40:30.194Z,56.25
2019-02-06T08:41:30.199Z,56.25
2019-02-06T08:42:30.220Z,56.25
2019-02-06T08:43:30.228Z,56.25
2019-02-06T08:44:30.237Z,56.25
2019-02-06T08:45:30.251Z,56.25
2019-02-06T08:46:30.262Z,56.25
2019-02-06T08:47:30.273Z,56.25
2019-02-06T08:48:30.295Z,56.25
2019-02-06T08:49:30.293Z,56.25
2019-02-06T08:50:30.305Z,61.88
2019-02-06T08:51:30.322Z,61.88
2019-02-06T08:52:30.332Z,61.88
2019-02-06T08:53:30.340Z,61.88
2019-02-06T08:54:30.351Z,67.50
2019-02-06T08:55:30.368Z,67.50
2019-02-06T08:56:30.371Z,67.50
2019-02-06T08:57:30.385Z,67.50
2019-02-06T08:58:30.396Z,73.13
2019-02-06T08:59:30.409Z,73.13
2019-02-06T09:00:30.442Z,73.13
2019-02-06T09:01:30.427Z,78.75
2019-02-06T09:02:30.450Z,78.75
2019-02-06T09:03:30.472Z,78.75
2019-02-06T09:04:30.467Z,78.75
2019-02-06T09:05:30.480Z,84.38
2019-02-06T09:06:30.493Z,84.38
2019-02-06T09:07:30.526Z,84.38
2019-02-06T09:08:30.520Z,90.00
2019-02-06T09:09:30.541Z,90.00
2019-02-06T09:10:30.544Z,90.00
2019-02-06T09:11:30.554Z,95.63
2019-02-06T09:12:30.566Z,95.63
2019-02-06T09:13:30.581Z,95.63
2019-02-06T09:14:30.592Z,95.63
2019-02-06T09:15:30.601Z,95.63
2019-02-06T09:16:30.959Z,95.63
2019-02-06T09:17:30.632Z,101.25
2019-02-06T09:18:30.640Z,101.25
2019-02-06T09:19:30.651Z,101.25
2019-02-06T09:20:30.660Z,101.25
2019-02-06T09:21:30.680Z,101.25
2019-02-06T09:22:30.699Z,101.25
2019-02-06T09:23:30.699Z,95.63
2019-02-06T09:24:30.767Z,95.63
2019-02-06T09:25:30.720Z,95.63
2019-02-06T09:26:34.045Z,90.00
2019-02-06T09:27:30.741Z,90.00
2019-02-06T09:28:30.754Z,84.38
2019-02-06T09:29:30.770Z,84.38
2019-02-06T09:30:30.975Z,84.38
2019-02-06T09:31:30.793Z,78.75
2019-02-06T09:32:30.807Z,78.75
2019-02-06T09:33:30.942Z,73.13
2019-02-06T09:34:30.912Z,73.13
2019-02-06T09:35:30.860Z,73.13
2019-02-06T09:36:30.863Z,67.50
2019-02-06T09:37:30.871Z,67.50
2019-02-06T09:38:30.878Z,67.50
2019-02-06T09:39:30.892Z,67.50
2019-02-06T09:40:30.907Z,67.50
2019-02-06T09:41:30.915Z,67.50
2019-02-06T09:42:30.939Z,73.13
2019-02-06T09:43:30.945Z,67.50
2019-02-06T09:44:30.953Z,67.50
2019-02-06T09:45:31.051Z,67.50
2019-02-06T09:46:31.010Z,67.50
2019-02-06T09:47:30.994Z,73.13
2019-02-06T09:48:31.014Z,73.13
2019-02-06T09:49:31.040Z,73.13
2019-02-06T09:50:31.055Z,73.13
2019-02-06T09:51:31.047Z,78.75
2019-02-06T09:52:31.071Z,78.75
2019-02-06T09:53:31.069Z,78.75
2019-02-06T09:54:31.090Z,78.75
2019-02-06T09:55:31.097Z,78.75
2019-02-06T09:56:31.106Z,78.75
2019-02-06T09:57:31.125Z,78.75
2019-02-06T09:58:31.140Z,78.75
2019-02-06T09:59:31.154Z,78.75
2019-02-06T10:00:31.160Z,78.75
2019-02-06T10:01:31.218Z,78.75
2019-02-06T10:02:31.201Z,78.75
2019-02-06T10:03:31.196Z,78.75
2019-02-06T10:04:31.209Z,78.75
2019-02-06T10:05:31.227Z,73.13
2019-02-06T10:06:31.236Z,67.50
2019-02-06T10:07:31.254Z,67.50
2019-02-06T10:08:31.286Z,61.88
2019-02-06T10:09:31.275Z,67.50
2019-02-06T10:10:31.290Z,67.50
2019-02-06T10:11:31.311Z,73.13
2019-02-06T10:12:31.341Z,78.75
2019-02-06T10:13:31.332Z,78.75
2019-02-06T10:14:31.345Z,73.13
2019-02-06T10:15:31.368Z,73.13
2019-02-06T10:16:31.369Z,73.13
2019-02-06T10:17:31.389Z,73.13
2019-02-06T10:18:31.397Z,73.13
2019-02-06T10:19:31.417Z,73.13
2019-02-06T10:20:31.425Z,78.75
2019-02-06T10:21:31.444Z,84.38
2019-02-06T10:22:31.454Z,84.38
2019-02-06T10:23:31.488Z,84.38
2019-02-06T10:24:31.473Z,84.38
2019-02-06T10:25:31.496Z,84.38
2019-02-06T10:26:31.507Z,84.38
2019-02-06T10:27:31.515Z,78.75
2019-02-06T10:28:31.538Z,78.75
2019-02-06T10:29:31.546Z,78.75
2019-02-06T10:30:31.554Z,73.13
2019-02-06T10:31:32.918Z,73.13
2019-02-06T10:32:31.591Z,73.13
2019-02-06T10:33:31.592Z,73.13
2019-02-06T10:34:31.714Z,73.13
2019-02-06T10:35:31.642Z,78.75
2019-02-06T10:36:31.651Z,84.38
2019-02-06T10:37:31.648Z,84.38
2019-02-06T10:38:31.664Z,90.00
2019-02-06T10:39:34.604Z,90.00
2019-02-06T10:40:31.699Z,95.63
2019-02-06T10:41:31.712Z,101.25
2019-02-06T10:42:31.726Z,106.88
2019-02-06T10:43:33.657Z,106.88
2019-02-06T10:44:31.772Z,101.25
2019-02-06T10:45:31.760Z,101.25
2019-02-06T10:46:31.795Z,106.88
2019-02-06T10:47:31.813Z,106.88
2019-02-06T10:48:31.800Z,95.63
2019-02-06T10:49:31.820Z,90.00
2019-02-06T10:50:31.851Z,84.38
2019-02-06T10:51:31.845Z,84.38
2019-02-06T10:52:31.877Z,78.75
2019-02-06T10:53:31.980Z,78.75
2019-02-06T10:54:31.890Z,78.75
2019-02-06T10:55:31.901Z,78.75
2019-02-06T10:56:31.988Z,78.75
2019-02-06T10:57:31.935Z,78.75
2019-02-06T10:58:32.028Z,78.75
2019-02-06T10:59:32.018Z,84.38
2019-02-06T11:00:31.967Z,84.38
2019-02-06T11:01:31.980Z,90.00
2019-02-06T11:02:34.600Z,101.25
2019-02-06T11:03:32.072Z,106.88
2019-02-06T11:04:32.020Z,106.88
2019-02-06T11:05:32.039Z,118.13
2019-02-06T11:06:32.078Z,118.13
2019-02-06T11:07:32.062Z,118.13
2019-02-06T11:08:32.086Z,112.50
2019-02-06T11:09:32.099Z,118.13
2019-02-06T11:10:32.103Z,129.38
2019-02-06T11:11:32.117Z,140.63
2019-02-06T11:12:32.144Z,135.00
2019-02-06T11:13:32.152Z,123.75
2019-02-06T11:14:32.167Z,118.13
2019-02-06T11:15:32.194Z,112.50
2019-02-06T11:16:32.222Z,112.50
2019-02-06T11:17:32.238Z,112.50
2019-02-06T11:18:32.220Z,118.13
2019-02-06T11:19:32.235Z,118.13
2019-02-06T11:20:32.251Z,118.13
2019-02-06T11:21:32.268Z,112.50
2019-02-06T11:22:32.308Z,112.50
2019-02-06T11:23:32.290Z,112.50
2019-02-06T11:24:32.312Z,112.50
2019-02-06T11:25:32.330Z,101.25
2019-02-06T11:26:32.338Z,95.63
2019-02-06T11:27:32.440Z,90.00
2019-02-06T11:28:32.366Z,90.00
2019-02-06T11:29:32.425Z,90.00
2019-02-06T11:30:32.408Z,84.38
2019-02-06T11:31:32.457Z,78.75
2019-02-06T11:32:32.431Z,78.75
2019-02-06T11:33:32.471Z,78.75
2019-02-06T11:34:32.487Z,73.13
2019-02-06T11:35:32.494Z,78.75
2019-02-06T11:36:32.479Z,84.38
2019-02-06T11:37:32.511Z,84.38
2019-02-06T11:38:32.514Z,84.38
2019-02-06T11:39:32.539Z,84.38
2019-02-06T11:40:32.542Z,95.63
2019-02-06T11:41:32.565Z,101.25
2019-02-06T11:42:32.580Z,112.50
2019-02-06T11:43:32.591Z,118.13
2019-02-06T11:44:32.598Z,118.13
2019-02-06T11:45:32.619Z,123.75
2019-02-06T11:46:32.640Z,135.00
2019-02-06T11:47:32.647Z,140.63
2019-02-06T11:48:32.666Z,129.38
2019-02-06T11:49:32.703Z,118.13
2019-02-06T11:50:32.695Z,112.50
2019-02-06T11:51:32.800Z,123.75
2019-02-06T11:52:32.728Z,135.00
2019-02-06T11:53:32.740Z,135.00
2019-02-06T11:54:32.755Z,135.00
2019-02-06T11:55:32.769Z,140.63
2019-02-06T11:56:32.797Z,140.63
2019-02-06T11:57:32.803Z,129.38
2019-02-06T11:58:32.809Z,129.38
2019-02-06T11:59:32.828Z,123.75
2019-02-06T12:00:32.839Z,118.13
2019-02-06T12:01:32.894Z,118.13
2019-02-06T12:02:37.396Z,140.63
2019-02-06T12:03:32.901Z,140.63
2019-02-06T12:04:32.963Z,140.63
2019-02-06T12:05:32.930Z,135.00
2019-02-06T12:06:32.935Z,129.38
2019-02-06T12:07:32.962Z,118.13
2019-02-06T12:08:32.966Z,112.50
2019-02-06T12:09:32.975Z,112.50
2019-02-06T12:10:32.998Z,118.13
2019-02-06T12:11:33.005Z,123.75
2019-02-06T12:12:33.032Z,129.38
2019-02-06T12:13:33.042Z,123.75
2019-02-06T12:14:33.061Z,123.75
2019-02-06T12:15:33.078Z,123.75
2019-02-06T12:16:33.170Z,123.75
2019-02-06T12:17:33.106Z,123.75
2019-02-06T12:18:33.136Z,129.38
2019-02-06T12:19:33.131Z,135.00
2019-02-06T12:20:33.149Z,135.00
2019-02-06T12:21:33.165Z,129.38
2019-02-06T12:22:33.183Z,118.13
2019-02-06T12:23:33.200Z,118.13
2019-02-06T12:24:33.214Z,118.13
2019-02-06T12:25:34.438Z,112.50
2019-02-06T12:26:33.241Z,112.50
2019-02-06T12:27:33.263Z,106.88
2019-02-06T12:28:33.277Z,101.25
2019-02-06T12:29:33.288Z,101.25
2019-02-06T12:30:33.305Z,95.63
2019-02-06T12:31:33.323Z,90.00
2019-02-06T12:32:33.332Z,90.00
2019-02-06T12:33:33.364Z,84.38
2019-02-06T12:34:33.370Z,84.38
2019-02-06T12:35:33.384Z,90.00
2019-02-06T12:36:33.401Z,90.00
2019-02-06T12:37:33.411Z,90.00
2019-02-06T12:38:33.439Z,90.00
2019-02-06T12:39:33.446Z,90.00
2019-02-06T12:40:33.459Z,90.00
2019-02-06T12:41:33.490Z,90.00
2019-02-06T12:42:33.490Z,84.38
2019-02-06T12:43:33.505Z,78.75
2019-02-06T12:44:33.544Z,73.13
2019-02-06T12:45:33.549Z,67.50
2019-02-06T12:46:34.381Z,61.88
2019-02-06T12:47:33.583Z,61.88
2019-02-06T12:48:33.595Z,67.50
2019-02-06T12:49:33.614Z,67.50
2019-02-06T12:50:33.624Z,73.13
2019-02-06T12:51:33.632Z,78.75
2019-02-06T12:52:33.659Z,78.75
2019-02-06T12:53:33.664Z,84.38
2019-02-06T12:54:33.686Z,90.00
2019-02-06T12:55:33.703Z,90.00
2019-02-06T12:56:33.746Z,90.00
2019-02-06T12:57:37.362Z,84.38
2019-02-06T12:58:33.743Z,90.00
2019-02-06T12:59:33.757Z,90.00
2019-02-06T13:00:33.776Z,90.00
2019-02-06T13:01:33.796Z,95.63
2019-02-06T13:02:33.896Z,95.63
2019-02-06T13:03:33.831Z,95.63
2019-02-06T13:04:33.840Z,95.63
2019-02-06T13:05:34.366Z,95.63
2019-02-06T13:06:33.866Z,95.63
2019-02-06T13:07:33.883Z,95.63
2019-02-06T13:08:33.902Z,90.00
2019-02-06T13:09:33.915Z,84.38
2019-02-06T13:10:34.510Z,78.75
2019-02-06T13:11:33.948Z,78.75
2019-02-06T13:12:33.990Z,73.13
2019-02-06T13:13:33.986Z,73.13
2019-02-06T13:14:33.988Z,73.13
2019-02-06T13:15:34.013Z,73.13
2019-02-06T13:16:34.033Z,67.50
2019-02-06T13:17:34.038Z,67.50
2019-02-06T13:18:34.060Z,61.88
2019-02-06T13:19:34.076Z,61.88
2019-02-06T13:20:34.087Z,61.88
2019-02-06T13:21:34.107Z,56.25
2019-02-06T13:22:34.114Z,56.25
2019-02-06T13:23:34.137Z,56.25
2019-02-06T13:24:34.151Z,56.25
2019-02-06T13:25:34.161Z,56.25
2019-02-06T13:26:34.179Z,56.25
2019-02-06T13:27:34.195Z,50.63
2019-02-06T13:28:34.210Z,50.63
2019-02-06T13:29:34.232Z,50.63
2019-02-06T13:30:34.274Z,50.63
2019-02-06T13:31:34.257Z,50.63
2019-02-06T13:32:34.279Z,56.25
2019-02-06T13:33:34.291Z,61.88
2019-02-06T13:34:34.303Z,61.88
2019-02-06T13:35:34.342Z,61.88
2019-02-06T13:36:34.336Z,67.50
2019-02-06T13:37:34.351Z,67.50
2019-02-06T13:38:34.368Z,61.88
2019-02-06T13:39:34.382Z,61.88
2019-02-06T13:40:45.033Z,61.88
2019-02-06T13:41:34.414Z,61.88
2019-02-06T13:42:34.428Z,61.88
2019-02-06T13:43:34.444Z,67.50
2019-02-06T13:44:34.458Z,67.50
2019-02-06T13:45:34.482Z,73.13
2019-02-06T13:46:34.493Z,78.75
2019-02-06T13:47:34.507Z,78.75
2019-02-06T13:48:34.532Z,73.13
2019-02-06T13:49:34.560Z,73.13
2019-02-06T13:50:34.560Z,73.13
2019-02-06T13:51:34.567Z,78.75
2019-02-06T13:52:34.593Z,78.75
2019-02-06T13:53:34.599Z,78.75
2019-02-06T13:54:34.618Z,78.75
2019-02-06T13:55:34.638Z,84.38
2019-02-06T13:56:34.648Z,84.38
2019-02-06T13:57:34.664Z,84.38
2019-02-06T13:58:34.680Z,84.38
2019-02-06T13:59:34.696Z,78.75
2019-02-06T14:00:34.715Z,78.75
2019-02-06T14:01:34.733Z,73.13
2019-02-06T14:02:34.742Z,67.50
2019-02-06T14:03:34.777Z,61.88
2019-02-06T14:04:34.774Z,61.88
2019-02-06T14:05:34.790Z,61.88
2019-02-06T14:06:34.815Z,61.88
2019-02-06T14:07:34.830Z,61.88
2019-02-06T14:08:34.841Z,61.88
2019-02-06T14:09:34.856Z,67.50
2019-02-06T14:10:34.869Z,67.50
2019-02-06T14:11:34.888Z,67.50
2019-02-06T14:12:34.902Z,67.50
2019-02-06T14:13:34.918Z,67.50
2019-02-06T14:14:34.940Z,61.88
2019-02-06T14:15:34.952Z,61.88
2019-02-06T14:16:34.963Z,61.88
2019-02-06T14:17:34.985Z,61.88
2019-02-06T14:18:34.996Z,73.13
2019-02-06T14:19:35.010Z,78.75
2019-02-06T14:20:35.028Z,90.00
2019-02-06T14:21:35.051Z,90.00
2019-02-06T14:22:35.061Z,84.38
2019-02-06T14:23:35.081Z,78.75
2019-02-06T14:24:35.183Z,73.13
2019-02-06T14:25:35.110Z,67.50
2019-02-06T14:26:35.132Z,67.50
2019-02-06T14:27:35.142Z,61.88
2019-02-06T14:28:44.429Z,56.25
2019-02-06T14:29:35.216Z,56.25
2019-02-06T14:30:35.198Z,61.88
2019-02-06T14:31:35.208Z,56.25
2019-02-06T14:32:35.243Z,50.63
2019-02-06T14:33:35.238Z,45.00
2019-02-06T14:34:35.251Z,45.00
2019-02-06T14:35:35.278Z,45.00
2019-02-06T14:36:35.288Z,45.00
2019-02-06T14:37:35.326Z,45.00
2019-02-06T14:38:35.319Z,39.38